Time;durP1;ratioP1;P1;durP2;ratioP2;P2;SDS_P1;SDS_P2;PMS_P1;PMS_P2;Temp;Humidity;BMP_temperature;BMP_pressure;BME280_temperature;BME280_humidity;BME280_pressure;Samples;Min_cycle;Max_cycle;Signal;HPM_P1;HPM_P2
2022/03/14 00:01:06;;;;;;;5.73;1.00;;;24.40;99.90;;;;;;5067859;28;20432;-86
2022/03/14 00:03:45;;;;;;;4.90;0.87;;;24.60;99.90;;;;;;5067396;28;20911;-80
2022/03/14 00:06:12;;;;;;;5.27;0.80;;;24.50;99.90;;;;;;5067655;28;20443;-82
2022/03/14 00:08:40;;;;;;;3.38;1.00;;;24.70;99.90;;;;;;5067487;28;20395;-84
2022/03/14 00:11:07;;;;;;;2.93;0.90;;;25.10;99.50;;;;;;5067498;28;20366;-83
2022/03/14 00:13:37;;;;;;;4.60;0.90;;;25.80;95.90;;;;;;5067473;28;20382;-79
2022/03/14 00:16:05;;;;;;;3.15;0.98;;;26.20;95.50;;;;;;5067293;28;20452;-82
2022/03/14 00:18:33;;;;;;;3.30;0.90;;;26.40;94.80;;;;;;5067175;28;20484;-83
2022/03/14 00:21:00;;;;;;;3.90;0.88;;;26.10;93.60;;;;;;5067207;28;20366;-87
2022/03/14 00:23:27;;;;;;;3.72;0.90;;;26.00;93.40;;;;;;5066674;28;20392;-80
2022/03/14 00:25:54;;;;;;;3.53;0.90;;;25.80;94.00;;;;;;5066765;28;20377;-89
2022/03/14 00:28:21;;;;;;;3.97;0.90;;;25.90;93.50;;;;;;5067136;28;20454;-86
2022/03/14 00:30:48;;;;;;;3.37;0.90;;;25.70;93.20;;;;;;5067061;28;20416;-83
2022/03/14 00:33:15;;;;;;;3.83;0.80;;;25.50;95.30;;;;;;5066765;28;20825;-84
2022/03/14 00:35:42;;;;;;;12.95;2.08;;;25.50;93.80;;;;;;5066884;28;20378;-88
2022/03/14 00:38:09;;;;;;;9.57;1.40;;;25.70;92.80;;;;;;5066736;28;20430;-79
2022/03/14 00:40:36;;;;;;;3.28;0.70;;;26.10;91.40;;;;;;5066494;28;20739;-88
2022/03/14 00:43:04;;;;;;;3.03;0.80;;;26.20;90.40;;;;;;5067187;28;20382;-87
2022/03/14 00:45:31;;;;;;;4.15;0.77;;;26.20;90.20;;;;;;5066838;28;20395;-84
2022/03/14 00:47:58;;;;;;;2.57;0.70;;;26.20;89.40;;;;;;5066863;28;20432;-81
2022/03/14 00:50:25;;;;;;;3.88;0.75;;;26.30;90.00;;;;;;5066685;28;20370;-84
2022/03/14 00:52:52;;;;;;;2.92;0.75;;;26.40;90.50;;;;;;5067647;28;20382;-88
2022/03/14 00:55:19;;;;;;;1.20;0.52;;;26.70;86.70;;;;;;5066545;28;20375;-85
2022/03/14 00:57:46;;;;;;;1.63;0.77;;;26.90;83.90;;;;;;5066597;28;20400;-89
2022/03/14 01:00:14;;;;;;;2.35;0.70;;;27.20;81.30;;;;;;5048707;28;20366;-82
2022/03/14 01:02:41;;;;;;;3.67;0.90;;;27.30;78.50;;;;;;5048689;28;20390;-86
2022/03/14 01:05:08;;;;;;;3.70;0.90;;;27.30;76.10;;;;;;5069660;28;20617;-89
2022/03/14 01:07:35;;;;;;;11.93;1.67;;;27.00;78.70;;;;;;5070341;28;20824;-80
2022/03/14 01:10:03;;;;;;;5.20;0.88;;;26.50;77.80;;;;;;5070432;28;20374;-81
2022/03/14 01:12:31;;;;;;;5.95;0.80;;;26.00;79.40;;;;;;5070447;28;20370;-81
2022/03/14 01:14:58;;;;;;;1.85;0.80;;;26.60;78.40;;;;;;5070150;28;20406;-80
2022/03/14 01:17:25;;;;;;;2.13;0.70;;;27.10;76.80;;;;;;5070474;28;20928;-86
2022/03/14 01:19:52;;;;;;;2.20;0.65;;;27.60;74.40;;;;;;5070265;28;20378;-88
2022/03/14 01:22:19;;;;;;;2.50;0.80;;;28.20;70.70;;;;;;5070320;28;20449;-88
2022/03/14 01:24:46;;;;;;;2.15;0.70;;;28.50;72.10;;;;;;5071168;28;20414;-90
2022/03/14 01:27:13;;;;;;;2.00;0.73;;;28.90;70.40;;;;;;5071155;28;20381;-88
2022/03/14 01:29:40;;;;;;;4.20;0.93;;;29.10;71.10;;;;;;5070187;28;20865;-78
2022/03/14 01:32:10;;;;;;;5.18;0.90;;;29.00;69.20;;;;;;5070460;28;20439;-78
2022/03/14 01:34:46;;;;;;;3.38;0.80;;;28.90;69.50;;;;;;5070455;28;20821;-78
2022/03/14 01:37:13;;;;;;;3.75;0.90;;;28.60;69.00;;;;;;5070207;28;20873;-84
2022/03/14 01:39:40;;;;;;;1.90;0.70;;;28.00;68.50;;;;;;5071263;28;20382;-79
2022/03/14 01:42:07;;;;;;;3.40;0.80;;;27.70;70.10;;;;;;5070642;28;20418;-78
2022/03/14 01:44:34;;;;;;;2.78;0.80;;;27.40;70.40;;;;;;5070491;28;20366;-86
2022/03/14 01:47:01;;;;;;;1.25;0.70;;;27.30;71.80;;;;;;5070269;28;20375;-87
2022/03/14 01:49:28;;;;;;;2.95;0.70;;;27.10;72.50;;;;;;5070089;28;20397;-83
2022/03/14 01:51:58;;;;;;;2.73;0.80;;;27.00;72.70;;;;;;5069592;28;20409;-81
2022/03/14 01:54:25;;;;;;;4.72;1.00;;;26.80;73.70;;;;;;5071363;28;20378;-83
2022/03/14 01:56:52;;;;;;;4.00;1.10;;;26.40;73.20;;;;;;5069660;28;20389;-84
2022/03/14 01:59:21;;;;;;;4.07;0.88;;;26.20;76.00;;;;;;5069888;28;20705;-82
2022/03/14 02:01:47;;;;;;;4.38;1.00;;;26.20;78.90;;;;;;5051855;28;20381;-81
2022/03/14 02:04:17;;;;;;;1.77;0.70;;;26.20;78.60;;;;;;5070100;28;20378;-80
2022/03/14 02:06:46;;;;;;;2.20;0.80;;;26.20;79.40;;;;;;5070229;28;20880;-81
2022/03/14 02:09:13;;;;;;;1.97;0.70;;;26.30;79.80;;;;;;5069890;28;20386;-88
2022/03/14 02:11:52;;;;;;;4.03;0.90;;;26.70;80.10;;;;;;5070429;28;20386;-83
2022/03/14 02:14:20;;;;;;;3.97;1.10;;;26.90;80.20;;;;;;5069838;28;20370;-86
2022/03/14 02:16:47;;;;;;;2.53;0.90;;;27.00;80.20;;;;;;5061787;28;20374;-86
2022/03/14 02:19:14;;;;;;;3.40;1.00;;;27.20;80.40;;;;;;5069870;28;20394;-80
2022/03/14 02:21:42;;;;;;;4.35;0.88;;;27.20;81.50;;;;;;5069544;28;20855;-88
2022/03/14 02:24:09;;;;;;;3.78;1.05;;;27.30;80.90;;;;;;5069518;28;20382;-78
2022/03/14 02:26:43;;;;;;;2.95;1.10;;;27.20;83.70;;;;;;5069161;28;20378;-86
2022/03/14 02:29:12;;;;;;;2.92;0.90;;;27.00;86.00;;;;;;5069336;28;20378;-84
2022/03/14 02:31:39;;;;;;;2.83;0.90;;;27.20;85.60;;;;;;5068921;28;20370;-82
2022/03/14 02:34:07;;;;;;;3.65;1.00;;;27.40;85.40;;;;;;5069154;28;20374;-82
2022/03/14 02:36:39;;;;;;;3.75;1.00;;;26.90;87.20;;;;;;5068898;28;20445;-79
2022/03/14 02:39:07;;;;;;;2.13;1.00;;;26.70;90.10;;;;;;5069012;28;20439;-84
2022/03/14 02:41:34;;;;;;;3.95;1.10;;;26.30;91.60;;;;;;5069214;28;20378;-89
2022/03/14 02:44:02;;;;;;;4.03;1.10;;;26.20;92.20;;;;;;5069343;28;20374;-86
2022/03/14 02:46:29;;;;;;;5.20;1.10;;;26.00;93.00;;;;;;5069101;28;20382;-80
2022/03/14 02:48:56;;;;;;;3.40;1.05;;;25.60;94.20;;;;;;5068801;28;20739;-89
2022/03/14 02:51:23;;;;;;;2.13;1.00;;;25.30;96.10;;;;;;5069313;28;20428;-84
2022/03/14 02:53:50;;;;;;;2.80;1.00;;;25.10;97.30;;;;;;5068531;28;20408;-80
2022/03/14 02:56:17;;;;;;;1.92;0.80;;;24.80;98.00;;;;;;5068855;28;20362;-82
2022/03/14 02:58:47;;;;;;;3.90;1.20;;;24.60;98.50;;;;;;5068657;28;20885;-81
2022/03/14 03:01:15;;;;;;;3.30;0.80;;;24.50;99.10;;;;;;5068601;28;20375;-89
2022/03/14 03:03:42;;;;;;;3.00;0.77;;;24.60;99.10;;;;;;5068335;28;20405;-90
2022/03/14 03:06:10;;;;;;;1.95;0.80;;;24.70;99.00;;;;;;5068833;28;20798;-80
2022/03/14 03:08:37;;;;;;;2.47;0.75;;;24.70;99.90;;;;;;5068293;28;20378;-83
2022/03/14 03:11:08;;;;;;;2.60;0.80;;;24.70;99.50;;;;;;5068581;28;20408;-84
2022/03/14 03:13:35;;;;;;;2.50;0.70;;;24.70;99.50;;;;;;5068849;28;20378;-80
2022/03/14 03:16:02;;;;;;;3.05;0.80;;;25.10;99.10;;;;;;5068546;28;20386;-85
2022/03/14 03:18:29;;;;;;;2.83;0.77;;;25.10;98.90;;;;;;5068266;28;20892;-88
2022/03/14 03:20:56;;;;;;;2.42;0.80;;;25.10;98.50;;;;;;5068086;28;20370;-84
2022/03/14 03:23:23;;;;;;;1.98;0.90;;;25.00;98.90;;;;;;5068479;28;20385;-89
2022/03/14 03:25:50;;;;;;;3.50;0.93;;;25.00;99.90;;;;;;5067994;28;20379;-80
2022/03/14 03:28:17;;;;;;;2.75;0.90;;;25.00;99.90;;;;;;5067904;28;20885;-86
2022/03/14 03:30:44;;;;;;;2.63;0.70;;;25.00;99.10;;;;;;5068092;28;20374;-90
2022/03/14 03:33:11;;;;;;;1.63;0.70;;;25.10;99.00;;;;;;5067844;28;20386;-79
2022/03/14 03:35:38;;;;;;;4.93;1.00;;;25.00;98.80;;;;;;5067806;28;20413;-82
2022/03/14 03:38:05;;;;;;;4.43;0.80;;;24.80;98.90;;;;;;5067762;28;20406;-82
2022/03/14 03:40:32;;;;;;;3.83;0.90;;;24.60;99.80;;;;;;5067581;28;20370;-80
2022/03/14 03:42:59;;;;;;;3.90;0.90;;;24.30;99.90;;;;;;5067595;28;20394;-78
2022/03/14 03:45:26;;;;;;;4.00;1.00;;;24.00;99.90;;;;;;5067655;28;20370;-90
2022/03/14 03:47:54;;;;;;;5.03;1.08;;;23.60;99.90;;;;;;5067705;28;20913;-86
2022/03/14 03:50:21;;;;;;;2.53;1.00;;;23.30;99.90;;;;;;5067949;28;20366;-82
2022/03/14 03:52:48;;;;;;;2.53;0.90;;;23.20;99.90;;;;;;5067625;28;20410;-86
2022/03/14 03:55:15;;;;;;;2.95;0.90;;;23.20;99.90;;;;;;5067221;28;20362;-78
2022/03/14 03:57:42;;;;;;;2.60;0.80;;;23.10;99.90;;;;;;5067348;28;20512;-83
2022/03/14 04:00:12;;;;;;;1.80;0.80;;;23.20;99.90;;;;;;5067290;28;20800;-81
2022/03/14 04:02:41;;;;;;;1.33;0.55;;;23.30;99.90;;;;;;5067510;28;20398;-81
2022/03/14 04:05:09;;;;;;;2.10;0.70;;;23.40;99.90;;;;;;5067190;28;20409;-82
2022/03/14 04:07:36;;;;;;;1.38;0.50;;;23.50;99.90;;;;;;5066925;28;20366;-81
2022/03/14 04:10:03;;;;;;;1.67;0.60;;;23.60;99.90;;;;;;5067226;28;20435;-84
2022/03/14 04:12:30;;;;;;;1.27;0.57;;;23.70;99.90;;;;;;5067187;28;20366;-79
2022/03/14 04:14:58;;;;;;;1.93;0.63;;;23.80;99.90;;;;;;5067098;28;20862;-86
2022/03/14 04:17:25;;;;;;;1.95;0.75;;;23.90;99.90;;;;;;5067092;28;20398;-88
2022/03/14 04:19:54;;;;;;;2.15;0.60;;;24.10;99.90;;;;;;5067186;28;20892;-79
2022/03/14 04:22:21;;;;;;;1.67;0.63;;;24.00;99.90;;;;;;5067196;28;20389;-79
2022/03/14 04:24:48;;;;;;;3.00;0.70;;;24.00;99.90;;;;;;5066857;28;20369;-83
2022/03/14 04:27:15;;;;;;;2.45;0.80;;;24.10;98.90;;;;;;5067137;28;20730;-82
2022/03/14 04:29:42;;;;;;;3.85;0.90;;;24.30;98.00;;;;;;5066934;28;20379;-79
2022/03/14 04:32:09;;;;;;;1.90;0.77;;;24.40;98.20;;;;;;5066619;28;20380;-80
2022/03/14 04:34:35;;;;;;;3.17;0.98;;;24.50;97.70;;;;;;5066710;28;20378;-85
2022/03/14 04:37:03;;;;;;;2.92;0.80;;;24.60;97.30;;;;;;5066610;28;20390;-82
2022/03/14 04:39:29;;;;;;;2.53;1.02;;;24.60;97.40;;;;;;5066803;28;20947;-83
2022/03/14 04:41:56;;;;;;;2.83;0.93;;;24.50;98.00;;;;;;5053746;28;20560;-80
2022/03/14 04:44:23;;;;;;;2.43;0.90;;;24.40;98.00;;;;;;5061989;28;20389;-87
2022/03/14 04:46:50;;;;;;;2.95;1.00;;;24.40;98.10;;;;;;5066933;28;20374;-83
2022/03/14 04:49:17;;;;;;;5.20;1.02;;;24.30;98.60;;;;;;5031465;28;20386;-81
2022/03/14 04:51:44;;;;;;;3.55;0.90;;;24.30;99.30;;;;;;5066768;28;20492;-85
2022/03/14 04:54:11;;;;;;;3.78;1.20;;;24.40;99.60;;;;;;5057281;28;20382;-82
2022/03/14 04:56:38;;;;;;;4.60;1.23;;;24.60;99.20;;;;;;5066801;28;20363;-84
2022/03/14 04:59:05;;;;;;;5.60;1.20;;;24.80;99.10;;;;;;5066998;28;20388;-81
2022/03/14 05:01:35;;;;;;;2.90;1.20;;;24.60;99.90;;;;;;5068220;28;20384;-87
2022/03/14 05:04:05;;;;;;;6.23;1.50;;;24.60;99.90;;;;;;5070967;28;20485;-80
2022/03/14 05:06:42;;;;;;;5.57;1.52;;;24.50;99.90;;;;;;5070203;28;20743;-85
2022/03/14 05:09:09;;;;;;;5.37;1.40;;;24.40;99.90;;;;;;5062446;28;20387;-86
2022/03/14 05:11:39;;;;;;;8.03;1.57;;;24.20;99.90;;;;;;5048930;28;20379;-81
2022/03/14 05:14:09;;;;;;;4.85;1.15;;;24.10;99.90;;;;;;5046864;28;20379;-82
2022/03/14 05:16:37;;;;;;;5.25;1.38;;;24.00;99.90;;;;;;5045578;28;20391;-87
2022/03/14 05:19:04;;;;;;;8.90;1.60;;;24.00;99.90;;;;;;5052883;28;20451;-83
2022/03/14 05:21:33;;;;;;;6.07;1.47;;;24.00;99.90;;;;;;5067142;28;20372;-83
2022/03/14 05:24:00;;;;;;;6.13;1.60;;;24.00;99.90;;;;;;5066699;28;20408;-83
2022/03/14 05:26:27;;;;;;;6.23;1.53;;;24.20;99.90;;;;;;5066300;28;20475;-81
2022/03/14 05:28:54;;;;;;;5.60;1.45;;;24.30;99.90;;;;;;5062894;28;20428;-79
2022/03/14 05:31:21;;;;;;;4.97;1.55;;;24.30;99.90;;;;;;5052944;28;20890;-81
2022/03/14 05:33:48;;;;;;;7.70;1.65;;;24.20;99.90;;;;;;5065005;28;20397;-83
2022/03/14 05:36:15;;;;;;;5.90;1.48;;;24.20;99.90;;;;;;5062924;28;20398;-83
2022/03/14 05:38:44;;;;;;;6.50;1.60;;;24.00;99.90;;;;;;5065792;28;20401;-86
2022/03/14 05:41:10;;;;;;;6.40;1.70;;;23.90;99.90;;;;;;5065772;28;20382;-82
2022/03/14 05:43:38;;;;;;;6.43;1.40;;;23.90;99.90;;;;;;5066481;28;20386;-83
2022/03/14 05:46:08;;;;;;;4.32;1.50;;;23.80;99.90;;;;;;5059658;28;20736;-82
2022/03/14 05:48:35;;;;;;;8.10;1.40;;;23.70;99.90;;;;;;5063344;28;20877;-81
2022/03/14 05:51:09;;;;;;;5.53;1.40;;;23.60;99.90;;;;;;5068652;28;21095;-89
2022/03/14 05:53:36;;;;;;;7.03;1.52;;;23.60;99.90;;;;;;5048458;28;20380;-83
2022/03/14 05:56:03;;;;;;;6.28;1.58;;;23.50;99.90;;;;;;5049939;28;20533;-85
2022/03/14 05:58:31;;;;;;;9.80;1.60;;;23.40;99.90;;;;;;5053530;28;20400;-85
2022/03/14 06:00:58;;;;;;;7.63;1.50;;;23.40;99.90;;;;;;5058166;28;20433;-82
2022/03/14 06:03:25;;;;;;;8.73;1.53;;;23.40;99.90;;;;;;5066457;28;20392;-82
2022/03/14 06:05:52;;;;;;;5.93;1.52;;;23.40;99.90;;;;;;5066145;28;20362;-90
2022/03/14 06:08:22;;;;;;;5.43;1.58;;;23.30;99.90;;;;;;5061747;28;20477;-88
2022/03/14 06:10:49;;;;;;;5.70;1.65;;;23.30;99.90;;;;;;5056898;28;20461;-85
2022/03/14 06:13:16;;;;;;;5.72;1.45;;;23.30;99.90;;;;;;5061182;28;20363;-82
2022/03/14 06:15:45;;;;;;;6.25;1.55;;;23.20;99.90;;;;;;5063738;28;20406;-83
2022/03/14 06:18:12;;;;;;;8.50;1.77;;;23.20;99.90;;;;;;5049417;28;20867;-86
2022/03/14 06:20:39;;;;;;;8.48;1.60;;;23.20;99.90;;;;;;5049394;28;20467;-86
2022/03/14 06:23:06;;;;;;;6.55;1.50;;;23.10;99.90;;;;;;5042443;28;20374;-84
2022/03/14 06:25:33;;;;;;;5.57;1.60;;;23.00;99.90;;;;;;5055533;28;20406;-84
2022/03/14 06:28:00;;;;;;;5.97;1.50;;;23.00;99.90;;;;;;5056316;28;20422;-92
2022/03/14 06:30:26;;;;;;;7.43;1.50;;;22.90;99.90;;;;;;5069528;28;20892;-84
2022/03/14 06:32:55;;;;;;;6.65;1.63;;;22.90;99.90;;;;;;5073185;28;20390;-81
2022/03/14 06:35:22;;;;;;;6.00;1.40;;;22.80;99.90;;;;;;5062372;28;20388;-80
2022/03/14 06:37:50;;;;;;;6.28;1.40;;;22.80;99.90;;;;;;5066242;28;20412;-91
2022/03/14 06:40:17;;;;;;;8.30;1.52;;;22.60;99.90;;;;;;5066496;28;20399;-84
2022/03/14 06:42:50;;;;;;;6.57;1.45;;;22.60;99.90;;;;;;5058476;28;20386;-86
2022/03/14 06:45:23;;;;;;;6.55;1.60;;;22.70;99.90;;;;;;5068684;28;20372;-81
2022/03/14 06:47:54;;;;;;;9.00;1.80;;;22.70;99.90;;;;;;5068602;28;20409;-79
2022/03/14 06:50:23;;;;;;;6.23;1.50;;;22.90;99.90;;;;;;5068414;28;20412;-86
2022/03/14 06:52:50;;;;;;;4.10;1.30;;;22.90;99.90;;;;;;5066580;28;20408;-82
2022/03/14 06:55:18;;;;;;;5.47;2.70;;;22.90;99.90;;;;;;5059151;28;20386;-81
2022/03/14 06:57:45;;;;;;;35.10;25.50;;;22.90;99.90;;;;;;5059573;28;20437;-84
2022/03/14 07:00:13;;;;;;;31.20;19.63;;;22.90;99.90;;;;;;5039020;28;20803;-83
2022/03/14 07:02:40;;;;;;;57.45;42.28;;;22.90;99.90;;;;;;5061424;28;20430;-80
2022/03/14 07:05:13;;;;;;;24.02;15.32;;;22.80;99.90;;;;;;5062456;28;20376;-85
2022/03/14 07:07:43;;;;;;;13.87;6.07;;;22.80;99.90;;;;;;5051109;28;20437;-79
2022/03/14 07:10:10;;;;;;;8.35;2.75;;;23.80;99.90;;;;;;5067310;28;20896;-81
2022/03/14 07:12:44;;;;;;;7.30;1.83;;;22.80;99.90;;;;;;5057426;28;20388;-79
2022/03/14 07:15:16;;;;;;;4.00;1.47;;;22.90;99.90;;;;;;5063868;28;20366;-81
2022/03/14 07:17:44;;;;;;;7.10;2.00;;;22.90;99.90;;;;;;5048789;28;20880;-86
2022/03/14 07:20:14;;;;;;;4.53;1.40;;;23.00;99.90;;;;;;5064359;28;20742;-83
2022/03/14 07:22:59;;;;;;;5.17;1.40;;;23.00;99.90;;;;;;5072965;28;20389;-85
2022/03/14 07:25:30;;;;;;;7.18;1.75;;;22.90;99.90;;;;;;5068362;28;20385;-83
2022/03/14 07:28:02;;;;;;;6.20;1.63;;;22.90;99.90;;;;;;5067728;28;20379;-84
2022/03/14 07:30:29;;;;;;;5.45;1.50;;;22.90;99.90;;;;;;5042733;28;20482;-81
2022/03/14 07:32:56;;;;;;;7.82;1.67;;;22.80;99.90;;;;;;5058885;28;20388;-84
2022/03/14 07:35:27;;;;;;;5.30;1.40;;;22.80;99.90;;;;;;5060715;28;20412;-84
2022/03/14 07:37:54;;;;;;;6.93;1.67;;;22.80;99.90;;;;;;5068347;28;20398;-83
2022/03/14 07:40:21;;;;;;;6.40;1.48;;;22.80;99.90;;;;;;5068186;28;20390;-88
2022/03/14 07:42:51;;;;;;;4.65;1.20;;;22.80;99.90;;;;;;5066339;28;20870;-88
2022/03/14 07:45:21;;;;;;;5.93;1.50;;;22.70;99.90;;;;;;5067669;28;20394;-83
2022/03/14 07:47:48;;;;;;;7.32;1.60;;;22.70;99.90;;;;;;5067734;28;20373;-84
2022/03/14 07:50:16;;;;;;;6.10;1.55;;;22.60;99.90;;;;;;5049943;28;20873;-87
2022/03/14 07:52:44;;;;;;;3.55;1.10;;;22.60;99.90;;;;;;5056469;28;20895;-82
2022/03/14 07:55:12;;;;;;;6.05;1.55;;;22.50;99.90;;;;;;5056329;28;20393;-84
2022/03/14 07:57:40;;;;;;;4.80;1.30;;;22.40;99.90;;;;;;5049580;28;20890;-87
2022/03/14 08:00:10;;;;;;;6.38;1.33;;;22.30;99.90;;;;;;5051133;28;20398;-91
2022/03/14 08:02:37;;;;;;;3.70;1.35;;;22.30;99.90;;;;;;5062707;28;20466;-89
2022/03/14 08:05:06;;;;;;;4.85;1.40;;;22.20;99.90;;;;;;5067466;28;20386;-79
2022/03/14 08:07:34;;;;;;;5.35;1.30;;;22.10;99.90;;;;;;5066944;28;20382;-83
2022/03/14 08:10:09;;;;;;;5.25;1.30;;;22.00;99.90;;;;;;5066290;28;20417;-88
2022/03/14 08:12:49;;;;;;;5.93;1.30;;;22.00;99.90;;;;;;5067558;28;20423;-89
2022/03/14 08:15:37;;;;;;;5.40;1.40;;;21.90;99.90;;;;;;5067000;28;20718;-86
2022/03/14 08:18:07;;;;;;;6.57;1.53;;;21.80;99.90;;;;;;5067648;28;20411;-86
2022/03/14 08:20:37;;;;;;;7.03;2.00;;;21.70;99.90;;;;;;5067243;28;20388;-87
2022/03/14 08:23:05;;;;;;;7.68;1.67;;;21.60;99.90;;;;;;5067699;28;20370;-88
2022/03/14 08:25:36;;;;;;;5.07;1.50;;;21.50;99.90;;;;;;5067736;28;20366;-83
2022/03/14 08:28:04;;;;;;;5.38;1.40;;;21.40;99.90;;;;;;5071353;28;20378;-87
2022/03/14 08:30:35;;;;;;;8.98;1.70;;;21.30;99.90;;;;;;5072650;28;20421;-88
2022/03/14 08:33:01;;;;;;;5.63;1.38;;;21.20;99.90;;;;;;5052491;28;20458;-87
2022/03/14 08:35:29;;;;;;;4.15;1.60;;;20.90;99.90;;;;;;5070062;28;20392;-82
2022/03/14 08:37:56;;;;;;;8.80;1.63;;;20.90;99.90;;;;;;5068793;28;20405;-83
2022/03/14 08:40:25;;;;;;;4.93;1.40;;;20.70;99.90;;;;;;5068894;28;20382;-82
2022/03/14 08:42:54;;;;;;;7.35;1.50;;;20.60;99.90;;;;;;5057928;28;20418;-84
2022/03/14 08:45:23;;;;;;;5.90;1.50;;;20.60;99.90;;;;;;5067463;28;20382;-85
2022/03/14 08:47:50;;;;;;;5.65;1.50;;;20.50;99.90;;;;;;5066894;28;21323;-84
2022/03/14 08:50:18;;;;;;;4.80;1.50;;;20.40;99.90;;;;;;5066698;28;20448;-83
2022/03/14 08:52:48;;;;;;;7.87;1.40;;;20.30;99.90;;;;;;5039195;28;20763;-82
2022/03/14 08:55:15;;;;;;;8.00;1.67;;;20.30;99.90;;;;;;5061856;28;20465;-83
2022/03/14 08:57:43;;;;;;;5.90;1.60;;;20.30;99.90;;;;;;5081987;28;20393;-82
2022/03/14 09:00:11;;;;;;;7.60;1.60;;;20.20;99.90;;;;;;5066915;28;20453;-82
2022/03/14 09:02:38;;;;;;;8.97;1.77;;;20.10;99.90;;;;;;5066966;28;20853;-81
2022/03/14 09:05:05;;;;;;;6.05;1.52;;;20.10;99.90;;;;;;5066289;28;20877;-83
2022/03/14 09:07:32;;;;;;;6.10;1.52;;;20.00;99.90;;;;;;5047538;28;20752;-81
2022/03/14 09:10:05;;;;;;;7.78;1.60;;;20.00;99.90;;;;;;5052477;28;20389;-85
2022/03/14 09:12:33;;;;;;;8.02;1.75;;;20.00;99.90;;;;;;5061733;28;20417;-85
2022/03/14 09:15:01;;;;;;;7.00;1.58;;;19.90;99.90;;;;;;5061337;28;20409;-83
2022/03/14 09:17:29;;;;;;;7.87;1.90;;;19.90;99.90;;;;;;5047057;28;20391;-84
2022/03/14 09:19:57;;;;;;;6.32;1.50;;;19.80;99.90;;;;;;5046567;28;20794;-84
2022/03/14 09:22:25;;;;;;;8.98;2.00;;;19.80;99.90;;;;;;5028402;28;20414;-83
2022/03/14 09:24:54;;;;;;;5.93;1.73;;;19.70;99.90;;;;;;5055610;28;20877;-84
2022/03/14 09:27:23;;;;;;;6.50;1.60;;;19.70;99.90;;;;;;5054646;28;20396;-82
2022/03/14 09:29:51;;;;;;;8.95;1.83;;;19.60;99.90;;;;;;5054691;28;20415;-82
2022/03/14 09:32:20;;;;;;;7.95;1.80;;;19.50;99.90;;;;;;5068445;28;20374;-80
2022/03/14 09:34:47;;;;;;;8.70;2.00;;;19.50;99.90;;;;;;5062999;28;20413;-81
2022/03/14 09:37:14;;;;;;;7.78;2.10;;;19.40;99.90;;;;;;5065159;28;20391;-81
2022/03/14 09:39:41;;;;;;;7.80;2.03;;;19.40;99.90;;;;;;5071705;28;20570;-84
2022/03/14 09:42:11;;;;;;;8.75;2.10;;;19.30;99.90;;;;;;5064730;28;20380;-84
2022/03/14 09:44:41;;;;;;;8.90;2.03;;;19.30;99.90;;;;;;5058344;28;20387;-80
2022/03/14 09:47:10;;;;;;;7.95;2.10;;;19.20;99.90;;;;;;5058684;28;20409;-82
2022/03/14 09:49:40;;;;;;;8.25;2.20;;;19.20;99.90;;;;;;5067237;28;20429;-83
2022/03/14 09:52:07;;;;;;;14.55;2.10;;;19.20;99.90;;;;;;5056368;28;20500;-82
2022/03/14 09:54:36;;;;;;;7.88;2.10;;;19.10;99.90;;;;;;5069791;28;20396;-85
2022/03/14 09:57:03;;;;;;;7.93;1.70;;;19.10;99.90;;;;;;5070115;28;20892;-82
2022/03/14 09:59:32;;;;;;;13.35;2.00;;;19.00;99.90;;;;;;5062529;28;20398;-83
2022/03/14 10:01:59;;;;;;;7.47;1.98;;;19.00;99.90;;;;;;5049870;28;20385;-82
2022/03/14 10:04:26;;;;;;;14.82;2.17;;;18.90;99.90;;;;;;5057503;28;20394;-83
2022/03/14 10:06:53;;;;;;;11.80;2.40;;;18.90;99.90;;;;;;5069046;28;20374;-82
2022/03/14 10:09:20;;;;;;;11.65;2.13;;;18.90;99.90;;;;;;5069434;28;20788;-82
2022/03/14 10:11:47;;;;;;;13.93;2.33;;;18.80;99.90;;;;;;5061046;28;20388;-84
2022/03/14 10:14:19;;;;;;;12.38;2.25;;;18.80;99.90;;;;;;5049626;28;20438;-84
2022/03/14 10:16:47;;;;;;;16.35;2.20;;;18.80;99.90;;;;;;5049291;28;20388;-82
2022/03/14 10:19:22;;;;;;;11.60;2.08;;;18.70;99.90;;;;;;5081087;28;20406;-82
2022/03/14 10:21:52;;;;;;;15.70;2.50;;;18.70;99.90;;;;;;5069665;28;20752;-84
2022/03/14 10:24:23;;;;;;;11.57;2.40;;;18.60;99.90;;;;;;5069429;28;20420;-85
2022/03/14 10:26:50;;;;;;;11.73;2.25;;;18.60;99.90;;;;;;5069555;28;20382;-85
2022/03/14 10:29:19;;;;;;;14.68;2.47;;;18.50;99.90;;;;;;5069335;28;20377;-85
2022/03/14 10:31:54;;;;;;;14.67;2.90;;;18.50;99.90;;;;;;5069567;28;20934;-82
2022/03/14 10:34:22;;;;;;;15.52;2.53;;;18.40;99.90;;;;;;5080292;28;20943;-84
2022/03/14 10:36:54;;;;;;;17.02;2.60;;;18.50;99.90;;;;;;5069425;28;20362;-83
2022/03/14 10:39:27;;;;;;;13.63;2.37;;;18.40;99.90;;;;;;5075107;28;20440;-83
2022/03/14 10:42:07;;;;;;;13.43;2.38;;;18.40;99.90;;;;;;5048719;28;20794;-86
2022/03/14 10:44:36;;;;;;;21.30;2.70;;;18.40;99.90;;;;;;5050438;28;20418;-82
2022/03/14 10:47:05;;;;;;;22.70;2.80;;;18.40;99.90;;;;;;5049344;28;20379;-84
2022/03/14 10:49:39;;;;;;;20.73;2.60;;;18.40;99.90;;;;;;5048673;28;20427;-83
2022/03/14 10:52:13;;;;;;;25.20;3.38;;;18.50;99.90;;;;;;5048746;28;20387;-82
2022/03/14 10:54:42;;;;;;;24.75;3.67;;;18.50;99.90;;;;;;5030922;28;20446;-83
2022/03/14 10:57:24;;;;;;;26.25;3.28;;;18.40;99.90;;;;;;5048527;28;20392;-84
2022/03/14 10:59:53;;;;;;;20.35;3.00;;;18.50;99.90;;;;;;5066922;28;20393;-84
2022/03/14 11:02:22;;;;;;;19.02;3.00;;;18.50;99.90;;;;;;5068699;28;20943;-84
2022/03/14 11:04:54;;;;;;;17.85;2.47;;;18.60;99.90;;;;;;5068071;28;20393;-83
2022/03/14 11:07:26;;;;;;;14.27;2.35;;;18.50;99.90;;;;;;5046649;28;20392;-83
2022/03/14 11:09:58;;;;;;;18.27;2.42;;;18.50;99.90;;;;;;5051284;28;20371;-83
2022/03/14 11:12:28;;;;;;;18.88;2.63;;;18.50;99.90;;;;;;5068674;28;20362;-82
2022/03/14 11:15:06;;;;;;;21.40;3.10;;;18.40;99.90;;;;;;5050342;28;20874;-86
2022/03/14 11:17:37;;;;;;;20.58;3.10;;;18.50;99.90;;;;;;5061341;28;20402;-84
2022/03/14 11:20:05;;;;;;;26.38;3.65;;;18.50;99.90;;;;;;5059976;28;20385;-84
2022/03/14 11:22:32;;;;;;;20.65;3.65;;;18.40;99.90;;;;;;5066491;28;20935;-84
2022/03/14 11:25:01;;;;;;;20.05;3.60;;;18.50;99.90;;;;;;5068465;28;20782;-83
2022/03/14 11:27:30;;;;;;;24.52;3.53;;;18.40;99.90;;;;;;5066635;28;20441;-84
2022/03/14 11:30:13;;;;;;;23.20;3.70;;;18.40;99.90;;;;;;5067995;28;20374;-85
2022/03/14 11:32:41;;;;;;;26.30;3.90;;;18.40;99.90;;;;;;5067592;28;20385;-82
2022/03/14 11:35:10;;;;;;;21.80;4.00;;;18.30;99.90;;;;;;5067431;28;20385;-83
2022/03/14 11:37:41;;;;;;;23.97;3.97;;;18.30;99.90;;;;;;5067143;28;20430;-84
2022/03/14 11:40:09;;;;;;;22.17;3.70;;;18.30;99.90;;;;;;5067862;28;20389;-82
2022/03/14 11:42:37;;;;;;;21.25;3.60;;;18.20;99.90;;;;;;5067992;28;20362;-83
2022/03/14 11:45:06;;;;;;;18.90;3.20;;;18.20;99.90;;;;;;5067822;28;20440;-81
2022/03/14 11:47:33;;;;;;;14.53;3.00;;;18.10;99.90;;;;;;5064913;28;20473;-83
2022/03/14 11:50:01;;;;;;;19.05;3.30;;;18.00;99.90;;;;;;5067843;28;20457;-84
2022/03/14 11:52:42;;;;;;;12.75;2.80;;;18.10;99.90;;;;;;5054743;28;20550;-82
2022/03/14 11:55:49;;;;;;;14.52;3.20;;;18.00;99.90;;;;;;5047794;28;20383;-83
2022/03/14 11:58:34;;;;;;;19.50;3.53;;;18.00;99.90;;;;;;5045875;28;20408;-82
2022/03/14 12:01:22;;;;;;;33.70;3.90;;;18.00;99.90;;;;;;5049674;28;20471;-82
2022/03/14 12:03:57;;;;;;;39.50;4.40;;;17.90;99.90;;;;;;5049744;28;20775;-81
2022/03/14 12:06:47;;;;;;;38.72;4.03;;;17.90;99.90;;;;;;5048513;28;20390;-83
2022/03/14 12:09:26;;;;;;;35.13;3.60;;;17.80;99.90;;;;;;4966986;28;20398;-81
2022/03/14 12:11:55;;;;;;;30.73;4.07;;;17.70;99.90;;;;;;4966559;28;20470;-82
2022/03/14 12:14:42;;;;;;;27.05;3.63;;;17.70;99.90;;;;;;4966031;28;20458;-83
2022/03/14 12:17:15;;;;;;;22.25;3.45;;;17.70;99.90;;;;;;4902647;29;20411;-81
2022/03/14 12:19:46;;;;;;;34.75;4.18;;;17.70;99.90;;;;;;4908611;29;20411;-82
2022/03/14 12:22:45;;;;;;;30.03;3.83;;;17.60;99.90;;;;;;4909662;29;20498;-82
2022/03/14 12:25:43;;;;;;;26.27;3.80;;;17.60;99.90;;;;;;4903797;29;20391;-82
2022/03/14 12:28:28;;;;;;;28.80;4.00;;;17.70;99.90;;;;;;4908801;29;20455;-82
2022/03/14 12:31:04;;;;;;;26.80;4.00;;;17.60;99.90;;;;;;4906141;29;20399;-81
2022/03/14 12:33:36;;;;;;;24.87;3.70;;;17.70;99.90;;;;;;4909113;29;20853;-81
2022/03/14 12:36:23;;;;;;;37.78;4.05;;;17.80;99.90;;;;;;4908774;29;20400;-82
2022/03/14 12:39:12;;;;;;;22.20;3.70;;;17.90;99.90;;;;;;4901910;29;20541;-81
2022/03/14 12:41:41;;;;;;;16.70;3.15;;;18.00;99.90;;;;;;4892548;29;20408;-81
2022/03/14 12:44:22;;;;;;;24.35;3.70;;;18.10;99.90;;;;;;4907508;29;20451;-82
2022/03/14 12:46:52;;;;;;;19.30;3.30;;;18.10;99.90;;;;;;4947023;28;20446;-81
2022/03/14 12:49:40;;;;;;;13.07;3.00;;;18.20;99.90;;;;;;4965906;28;20409;-82
2022/03/14 12:52:15;;;;;;;23.10;3.38;;;18.20;99.90;;;;;;4979183;28;20404;-83
2022/03/14 12:54:44;;;;;;;16.40;3.03;;;18.30;99.90;;;;;;5040410;28;20405;-82